Asert, OR

12:19 AM PDT on October 25, 2014 (GMT -0700)
Hogan and Roberts | Change Station
CLOSE
Current Station
Personal Weather Station
Location: Gresham, OR
Elevation: 384 ft
Nearby Weather Stations

Elev 384 ft 45.49 °N, 122.42 °W | Updated 1 minute ago

Clear
Clear
55.0 °F
Feels Like 55.0 °F
N
3.1
Wind Variable Wind from ENE
Gusts 5.8 mph

Today
High -- | Low -- °F
--% Chance of Precip.
Yesterday
High -- | Low -- °F
Precip. -- in
7:39 AM 6:07 PM
New Moon, 2% visible
Pressure 29.66 in
Visibility 10.0 miles
Clouds Clear
Dew Point 42 °F
Humidity 61%
Rainfall 0.00 in
Snow Depth Not available.
UV 0 out of 12
Pollen .40 out of 12
Ozone Good
PM2.5 Good
Flu Activity Sporadic
METAR KTTD 250653Z AUTO 09016G24KT 10SM CLR 13/09 A2966 RMK AO2 SLP043 T01330089

More Conditions Fewer Conditions

Pressure 29.66 in
Visibility 10.0 miles
Clouds Clear
Dew Point 42 °F
Humidity 61%
Rainfall 0.00 in
Snow Depth Not available.
UV 0 out of 12
Pollen .40 out of 12
Ozone Good
PM2.5 Good
Flu Activity Sporadic
METAR KTTD 250653Z AUTO 09016G24KT 10SM CLR 13/09 A2966 RMK AO2 SLP043 T01330089

More Conditions Fewer Conditions

10-Day Weather Forecast

Almanac

Astronomy

Oct. 25, 2014 Rise Set
Actual Time 7:39 AM PDT 6:07 PM PDT
Civil Twilight 7:09 AM PDT 6:37 PM PDT
Nautical Twilight 6:34 AM PDT 7:12 PM PDT
Astronomical Twilight 6:00 AM PDT 7:46 PM PDT
Moon 9:27 AM PDT 7:29 PM PDT
Length of Visible Light 11h 28m
Length of Day
10h 27m
Tomorrow will be 2m 57s shorter.
New Moon, 2% of the Moon is Illuminated
Today
New Moon
Oct 30
First Quarter
Nov 6
Full
Nov 14
Last Quarter
Nov 22
New

Today's Extremes

State Highs State Lows

Community

WunderPhotos

Upload Photos

1,764,789 photos uploaded!

Nearby

Air Quality

  Air Quality AQ Index Pollutant
Yesterday Good
PM2.5
Yesterday Good
OZONE
Current Good
PM2.5
Current Good
OZONE
Friday Good
PM2.5
Saturday Good
PM2.5

Snow Depth

Station Depth Elevation
North Fork 0 in 3120 ft
Red Hill 0 in 4400 ft
Greenpoint 0 in 3200 ft
Mud Ridge 1 in 3800 ft
Peavine Ridge 0 in 3500 ft

Earthquake Activity

City Distance Mag. Time & Date
No recent earthquake activity has been reported nearby.
Minimum magnitude displayed is 2.5.

Coastal Water Temperatures

Place Temperature
No Stations Reporting

Nearby Weather Stations